createdAt,value
2022-08-07T00:01:01.356Z,18.91
2022-08-07T00:06:33.178Z,18.35
2022-08-07T00:11:35.087Z,18.29
2022-08-07T00:16:49.399Z,18.44
2022-08-07T00:21:56.148Z,18.45
2022-08-07T00:27:07.316Z,18.33
2022-08-07T00:32:10.163Z,17.88
2022-08-07T00:37:15.076Z,17.84
2022-08-07T00:42:16.811Z,17.29
2022-08-07T00:48:08.187Z,17.23
2022-08-07T00:52:39.778Z,17.45
2022-08-07T00:57:55.067Z,17.49
2022-08-07T01:02:57.634Z,17.69
2022-08-07T01:07:59.493Z,17.86
2022-08-07T01:13:00.973Z,17.58
2022-08-07T01:18:04.839Z,17.88
2022-08-07T01:23:12.179Z,17.88
2022-08-07T01:28:14.453Z,17.58
2022-08-07T01:33:15.950Z,17.50
2022-08-07T01:38:25.131Z,17.13
2022-08-07T01:43:27.394Z,17.26
2022-08-07T01:48:41.169Z,16.84
2022-08-07T01:54:11.954Z,16.93
2022-08-07T01:59:04.097Z,16.64
2022-08-07T02:04:05.736Z,17.11
2022-08-07T02:09:11.643Z,17.10
2022-08-07T02:14:35.847Z,17.00
2022-08-07T02:20:04.374Z,16.33
2022-08-07T02:24:59.531Z,15.84
2022-08-07T02:30:03.553Z,16.23
2022-08-07T02:35:09.165Z,16.64
2022-08-07T02:40:31.222Z,16.35
2022-08-07T02:45:58.143Z,16.39
2022-08-07T02:50:53.616Z,16.71
2022-08-07T02:56:04.371Z,16.72
2022-08-07T03:01:18.455Z,16.45
2022-08-07T03:06:25.813Z,15.92
2022-08-07T03:11:38.598Z,15.52
2022-08-07T03:16:44.109Z,15.75
2022-08-07T03:21:50.595Z,16.02
2022-08-07T03:26:59.125Z,16.22
2022-08-07T03:32:01.002Z,16.12
2022-08-07T03:37:12.250Z,16.00
2022-08-07T03:42:14.261Z,15.62
2022-08-07T03:47:15.949Z,15.47
2022-08-07T03:52:26.807Z,15.26
2022-08-07T03:59:04.786Z,15.11
2022-08-07T04:02:50.403Z,15.02
2022-08-07T04:07:58.405Z,14.94
2022-08-07T04:13:01.934Z,14.98
2022-08-07T04:18:57.225Z,15.17
2022-08-07T04:23:25.797Z,15.17
2022-08-07T04:28:45.538Z,15.23
2022-08-07T04:33:47.506Z,15.33
2022-08-07T04:38:56.680Z,15.26
2022-08-07T04:44:12.308Z,15.13
2022-08-07T04:49:24.653Z,14.61
2022-08-07T04:54:30.295Z,15.02
2022-08-07T05:00:09.455Z,15.49
2022-08-07T05:04:53.665Z,15.75
2022-08-07T05:09:55.253Z,15.44
2022-08-07T05:15:04.264Z,15.68
2022-08-07T05:20:09.655Z,15.91
2022-08-07T05:25:11.790Z,15.35
2022-08-07T05:30:32.822Z,15.57
2022-08-07T05:35:41.604Z,16.06
2022-08-07T05:40:50.599Z,16.13
2022-08-07T05:45:57.312Z,16.41
2022-08-07T05:51:00.913Z,17.59
2022-08-07T05:56:05.607Z,17.58
2022-08-07T06:01:10.567Z,17.28
2022-08-07T06:06:12.571Z,18.33
2022-08-07T06:11:24.994Z,18.97
2022-08-07T06:16:29.412Z,18.72
2022-08-07T06:22:15.984Z,19.55
2022-08-07T06:26:52.034Z,19.09
2022-08-07T06:31:53.298Z,19.04
2022-08-07T06:36:54.566Z,19.57
2022-08-07T06:42:01.854Z,19.52
2022-08-07T06:47:12.400Z,19.93
2022-08-07T06:52:16.758Z,20.19
2022-08-07T06:57:39.833Z,20.45
2022-08-07T07:02:57.269Z,20.27
2022-08-07T07:08:06.316Z,20.48
2022-08-07T07:13:08.365Z,20.63
2022-08-07T07:18:11.323Z,20.94
2022-08-07T07:24:09.775Z,20.28
2022-08-07T07:28:48.417Z,20.73
2022-08-07T07:33:57.067Z,20.56
2022-08-07T07:38:58.627Z,21.48
2022-08-07T07:44:17.304Z,21.61
2022-08-07T07:50:34.755Z,21.31
2022-08-07T07:54:50.724Z,21.92
2022-08-07T07:59:53.917Z,22.36
2022-08-07T08:04:55.494Z,22.56
2022-08-07T08:10:05.330Z,22.39
2022-08-07T08:15:07.205Z,22.67
2022-08-07T08:20:18.463Z,22.53
2022-08-07T08:25:49.250Z,22.72
2022-08-07T08:30:55.786Z,23.00
2022-08-07T08:35:57.194Z,23.03
2022-08-07T08:40:58.584Z,23.45
2022-08-07T08:46:00.791Z,23.56
2022-08-07T08:51:03.444Z,23.26
2022-08-07T08:56:17.315Z,24.05
2022-08-07T09:01:19.481Z,23.44
2022-08-07T09:06:21.254Z,23.84
2022-08-07T09:11:24.771Z,24.40
2022-08-07T09:16:43.962Z,24.62
2022-08-07T09:22:09.849Z,24.33
2022-08-07T09:27:11.897Z,23.90
2022-08-07T09:32:18.704Z,24.79
2022-08-07T09:37:20.328Z,24.75
2022-08-07T09:42:35.424Z,24.91
2022-08-07T09:47:56.094Z,25.53
2022-08-07T09:52:58.535Z,25.49
2022-08-07T09:58:02.086Z,25.58
2022-08-07T10:03:07.786Z,25.58
2022-08-07T10:08:09.535Z,24.69
2022-08-07T10:13:29.764Z,25.24
2022-08-07T10:18:32.208Z,25.76
2022-08-07T10:24:05.082Z,26.31
2022-08-07T10:28:59.473Z,26.46
2022-08-07T10:34:15.609Z,26.40
2022-08-07T10:39:19.725Z,26.39
2022-08-07T10:44:28.366Z,25.54
2022-08-07T10:49:49.659Z,25.65
2022-08-07T10:55:00.872Z,26.78
2022-08-07T11:00:03.915Z,26.72
2022-08-07T11:05:10.489Z,26.62
2022-08-07T11:10:12.247Z,26.56
2022-08-07T11:15:17.682Z,26.18
2022-08-07T11:20:19.144Z,26.84
2022-08-07T11:25:23.909Z,27.43
2022-08-07T11:30:39.148Z,27.44
2022-08-07T11:35:59.504Z,28.05
2022-08-07T11:41:02.234Z,28.81
2022-08-07T11:46:04.677Z,27.64
2022-08-07T11:51:09.634Z,27.32
2022-08-07T11:56:26.752Z,28.42
2022-08-07T12:01:59.997Z,28.07
2022-08-07T12:07:07.935Z,28.54
2022-08-07T12:12:11.997Z,28.40
2022-08-07T12:17:25.928Z,27.91
2022-08-07T12:22:39.215Z,28.76
2022-08-07T12:28:08.496Z,28.94
2022-08-07T12:33:18.735Z,28.79
2022-08-07T12:38:36.948Z,29.91
2022-08-07T12:44:02.159Z,30.85
2022-08-07T12:49:10.004Z,31.04
2022-08-07T12:54:38.606Z,30.70
2022-08-07T12:59:54.712Z,30.83
2022-08-07T13:05:01.609Z,31.54
2022-08-07T13:10:28.873Z,31.69
2022-08-07T13:15:31.998Z,31.02
2022-08-07T13:20:33.728Z,31.32
2022-08-07T13:25:37.291Z,31.20
2022-08-07T13:30:44.155Z,30.58
2022-08-07T13:36:01.026Z,30.29
2022-08-07T13:41:06.494Z,31.58
2022-08-07T13:46:20.949Z,31.86
2022-08-07T13:51:28.574Z,31.70
2022-08-07T13:56:52.173Z,31.81
2022-08-07T14:02:04.802Z,32.16
2022-08-07T14:07:09.228Z,31.66
2022-08-07T14:12:11.127Z,31.74
2022-08-07T14:18:12.801Z,31.25
2022-08-07T14:22:37.954Z,31.64
2022-08-07T14:28:10.332Z,31.34
2022-08-07T14:33:01.722Z,31.30
2022-08-07T14:38:06.241Z,30.99
2022-08-07T14:43:58.984Z,31.39
2022-08-07T14:48:31.563Z,31.45
2022-08-07T14:58:56.283Z,31.20
2022-08-07T15:04:01.208Z,31.49
2022-08-07T15:09:57.559Z,31.57
2022-08-07T15:14:30.404Z,31.41
2022-08-07T15:20:31.053Z,31.56
2022-08-07T15:25:13.161Z,31.21
2022-08-07T15:30:14.738Z,31.03
2022-08-07T15:35:17.457Z,30.76
2022-08-07T15:40:34.585Z,30.67
2022-08-07T15:45:56.400Z,30.17
2022-08-07T15:51:08.574Z,29.77
2022-08-07T15:56:13.177Z,29.51
2022-08-07T16:01:14.550Z,29.35
2022-08-07T16:06:21.563Z,28.99
2022-08-07T16:11:28.768Z,28.95
2022-08-07T16:16:48.944Z,29.07
2022-08-07T16:22:05.607Z,28.87
2022-08-07T16:27:18.024Z,28.74
2022-08-07T16:32:32.888Z,29.09
2022-08-07T16:38:04.118Z,28.81
2022-08-07T16:42:56.044Z,28.57
2022-08-07T16:47:57.353Z,28.42
2022-08-07T16:53:14.967Z,28.60
2022-08-07T16:58:19.883Z,28.01
2022-08-07T17:03:58.219Z,27.82
2022-08-07T17:09:09.339Z,27.89
2022-08-07T17:14:18.081Z,27.47
2022-08-07T17:20:00.866Z,27.67
2022-08-07T17:24:42.643Z,27.28
2022-08-07T17:30:15.930Z,27.53
2022-08-07T17:35:51.077Z,27.24
2022-08-07T17:40:30.393Z,27.28
2022-08-07T17:45:35.019Z,27.20
2022-08-07T17:50:42.534Z,27.18
2022-08-07T17:55:55.702Z,27.06
2022-08-07T18:01:20.644Z,27.27
2022-08-07T18:06:38.318Z,27.22
2022-08-07T18:12:11.958Z,27.13
2022-08-07T18:17:01.509Z,26.81
2022-08-07T18:22:11.314Z,26.76
2022-08-07T18:27:18.148Z,26.67
2022-08-07T18:32:22.761Z,26.43
2022-08-07T18:38:59.651Z,26.24
2022-08-07T18:42:45.885Z,25.90
2022-08-07T18:48:00.776Z,25.88
2022-08-07T18:53:05.814Z,25.96
2022-08-07T18:58:09.843Z,25.77
2022-08-07T19:03:16.314Z,25.33
2022-08-07T19:08:17.931Z,25.51
2022-08-07T19:13:21.588Z,25.54
2022-08-07T19:18:34.586Z,25.45
2022-08-07T19:23:59.162Z,25.05
2022-08-07T19:31:01.227Z,25.17
2022-08-07T19:34:34.001Z,25.10
2022-08-07T19:39:56.421Z,24.96
2022-08-07T19:45:00.685Z,24.54
2022-08-07T19:50:41.062Z,24.49
2022-08-07T19:55:57.452Z,24.55
2022-08-07T20:00:59.007Z,24.57
2022-08-07T20:06:04.395Z,24.22
2022-08-07T20:11:09.860Z,24.21
2022-08-07T20:16:15.766Z,23.85
2022-08-07T20:21:46.932Z,24.04
2022-08-07T20:26:52.326Z,24.06
2022-08-07T20:31:56.190Z,24.07
2022-08-07T20:36:57.555Z,23.92
2022-08-07T20:41:59.450Z,23.10
2022-08-07T20:47:05.775Z,23.21
2022-08-07T20:52:16.747Z,23.23
2022-08-07T20:57:20.275Z,23.16
2022-08-07T21:02:41.329Z,23.19
2022-08-07T21:07:57.629Z,23.12
2022-08-07T21:12:59.930Z,22.38
2022-08-07T21:18:17.244Z,22.36
2022-08-07T21:23:26.392Z,21.93
2022-08-07T21:28:49.873Z,21.83
2022-08-07T21:33:52.040Z,21.92
2022-08-07T21:38:55.522Z,22.07
2022-08-07T21:43:59.003Z,22.08
2022-08-07T21:49:02.903Z,21.92
2022-08-07T21:54:06.096Z,21.23
2022-08-07T21:59:07.378Z,21.51
2022-08-07T22:04:09.258Z,21.47
2022-08-07T22:09:12.446Z,21.31
2022-08-07T22:14:15.199Z,21.13
2022-08-07T22:19:29.998Z,21.29
2022-08-07T22:24:32.833Z,21.24
2022-08-07T22:29:47.351Z,20.72
2022-08-07T22:34:53.494Z,20.78
2022-08-07T22:39:55.043Z,20.93
2022-08-07T22:44:58.744Z,20.89
2022-08-07T22:50:00.585Z,20.25
2022-08-07T22:55:14.841Z,20.28
2022-08-07T23:00:28.385Z,20.45
2022-08-07T23:06:07.514Z,20.49
2022-08-07T23:10:51.364Z,20.19
2022-08-07T23:16:06.007Z,20.19
2022-08-07T23:21:09.923Z,19.93
2022-08-07T23:26:11.824Z,20.04
2022-08-07T23:31:18.599Z,20.26
2022-08-07T23:36:35.838Z,20.20
2022-08-07T23:41:47.574Z,20.14
2022-08-07T23:46:58.455Z,20.06
2022-08-07T23:53:05.491Z,19.98
2022-08-07T23:57:22.202Z,19.69
